sensor_id;sensor_type;location;lat;lon;timestamp;P1;durP1;ratioP1;P2;durP2;ratioP2
1300;SDS011;67431;48.806;9.160;2023-02-05T00:02:12;15.23;;;7.70;;
1300;SDS011;67431;48.806;9.160;2023-02-05T00:04:38;15.83;;;10.47;;
1300;SDS011;67431;48.806;9.160;2023-02-05T00:07:04;9.83;;;7.40;;
1300;SDS011;67431;48.806;9.160;2023-02-05T00:09:30;15.73;;;8.03;;
1300;SDS011;67431;48.806;9.160;2023-02-05T00:11:56;14.00;;;7.70;;
1300;SDS011;67431;48.806;9.160;2023-02-05T00:14:22;13.60;;;8.83;;
1300;SDS011;67431;48.806;9.160;2023-02-05T00:16:49;12.53;;;7.87;;
1300;SDS011;67431;48.806;9.160;2023-02-05T00:19:16;14.30;;;8.40;;
1300;SDS011;67431;48.806;9.160;2023-02-05T00:21:42;22.77;;;12.17;;
1300;SDS011;67431;48.806;9.160;2023-02-05T00:24:09;12.20;;;6.50;;
1300;SDS011;67431;48.806;9.160;2023-02-05T00:26:35;11.97;;;6.70;;
1300;SDS011;67431;48.806;9.160;2023-02-05T00:29:02;13.63;;;6.40;;
1300;SDS011;67431;48.806;9.160;2023-02-05T00:31:28;13.00;;;6.60;;
1300;SDS011;67431;48.806;9.160;2023-02-05T00:33:54;15.90;;;8.97;;
1300;SDS011;67431;48.806;9.160;2023-02-05T00:36:20;20.00;;;10.87;;
1300;SDS011;67431;48.806;9.160;2023-02-05T00:38:47;13.90;;;8.37;;
1300;SDS011;67431;48.806;9.160;2023-02-05T00:41:14;24.37;;;12.43;;
1300;SDS011;67431;48.806;9.160;2023-02-05T00:43:41;19.10;;;8.47;;
1300;SDS011;67431;48.806;9.160;2023-02-05T00:46:07;13.97;;;8.50;;
1300;SDS011;67431;48.806;9.160;2023-02-05T00:48:34;12.87;;;8.10;;
1300;SDS011;67431;48.806;9.160;2023-02-05T00:51:00;15.83;;;9.33;;
1300;SDS011;67431;48.806;9.160;2023-02-05T00:53:27;14.27;;;8.70;;
1300;SDS011;67431;48.806;9.160;2023-02-05T00:55:53;12.23;;;9.23;;
1300;SDS011;67431;48.806;9.160;2023-02-05T00:58:22;16.57;;;9.63;;
1300;SDS011;67431;48.806;9.160;2023-02-05T01:00:51;27.33;;;18.53;;
1300;SDS011;67431;48.806;9.160;2023-02-05T01:03:18;22.57;;;12.47;;
1300;SDS011;67431;48.806;9.160;2023-02-05T01:05:46;40.47;;;22.90;;
1300;SDS011;67431;48.806;9.160;2023-02-05T01:08:12;46.60;;;26.67;;
1300;SDS011;67431;48.806;9.160;2023-02-05T01:10:42;18.60;;;10.67;;
1300;SDS011;67431;48.806;9.160;2023-02-05T01:13:12;22.43;;;12.17;;
1300;SDS011;67431;48.806;9.160;2023-02-05T01:15:39;30.70;;;18.97;;
1300;SDS011;67431;48.806;9.160;2023-02-05T01:18:05;18.90;;;12.07;;
1300;SDS011;67431;48.806;9.160;2023-02-05T01:20:31;18.50;;;11.20;;
1300;SDS011;67431;48.806;9.160;2023-02-05T01:23:00;28.07;;;15.00;;
1300;SDS011;67431;48.806;9.160;2023-02-05T01:25:26;32.77;;;16.23;;
1300;SDS011;67431;48.806;9.160;2023-02-05T01:27:51;35.60;;;17.30;;
1300;SDS011;67431;48.806;9.160;2023-02-05T01:30:17;16.43;;;9.50;;
1300;SDS011;67431;48.806;9.160;2023-02-05T01:32:43;14.57;;;9.37;;
1300;SDS011;67431;48.806;9.160;2023-02-05T01:35:09;25.10;;;13.03;;
1300;SDS011;67431;48.806;9.160;2023-02-05T01:37:35;17.07;;;8.97;;
1300;SDS011;67431;48.806;9.160;2023-02-05T01:40:02;12.93;;;7.07;;
1300;SDS011;67431;48.806;9.160;2023-02-05T01:42:29;16.60;;;7.33;;
1300;SDS011;67431;48.806;9.160;2023-02-05T01:47:48;9.00;;;6.50;;
1300;SDS011;67431;48.806;9.160;2023-02-05T01:50:18;11.23;;;5.70;;
1300;SDS011;67431;48.806;9.160;2023-02-05T01:52:47;11.63;;;6.47;;
1300;SDS011;67431;48.806;9.160;2023-02-05T01:55:14;6.20;;;4.40;;
1300;SDS011;67431;48.806;9.160;2023-02-05T01:57:40;13.27;;;5.63;;
1300;SDS011;67431;48.806;9.160;2023-02-05T02:00:07;11.63;;;5.37;;
1300;SDS011;67431;48.806;9.160;2023-02-05T02:02:40;9.37;;;5.53;;
1300;SDS011;67431;48.806;9.160;2023-02-05T02:05:08;12.60;;;5.73;;
1300;SDS011;67431;48.806;9.160;2023-02-05T02:07:39;11.93;;;7.40;;
1300;SDS011;67431;48.806;9.160;2023-02-05T02:10:06;9.80;;;6.40;;
1300;SDS011;67431;48.806;9.160;2023-02-05T02:12:34;10.80;;;7.00;;
1300;SDS011;67431;48.806;9.160;2023-02-05T02:15:08;9.40;;;6.07;;
1300;SDS011;67431;48.806;9.160;2023-02-05T02:17:39;8.00;;;6.17;;
1300;SDS011;67431;48.806;9.160;2023-02-05T02:20:08;14.77;;;6.30;;
1300;SDS011;67431;48.806;9.160;2023-02-05T02:31:01;12.33;;;6.03;;
1300;SDS011;67431;48.806;9.160;2023-02-05T02:33:36;12.33;;;5.80;;
1300;SDS011;67431;48.806;9.160;2023-02-05T02:36:16;7.70;;;5.70;;
1300;SDS011;67431;48.806;9.160;2023-02-05T02:44:51;8.27;;;6.60;;
1300;SDS011;67431;48.806;9.160;2023-02-05T02:47:21;10.47;;;7.03;;
1300;SDS011;67431;48.806;9.160;2023-02-05T02:50:10;9.17;;;5.33;;
1300;SDS011;67431;48.806;9.160;2023-02-05T02:52:47;10.60;;;5.73;;
1300;SDS011;67431;48.806;9.160;2023-02-05T02:55:16;8.90;;;5.77;;
1300;SDS011;67431;48.806;9.160;2023-02-05T02:57:47;12.33;;;7.30;;
1300;SDS011;67431;48.806;9.160;2023-02-05T03:00:17;10.17;;;6.13;;
1300;SDS011;67431;48.806;9.160;2023-02-05T03:02:49;7.07;;;5.53;;
1300;SDS011;67431;48.806;9.160;2023-02-05T03:05:20;11.43;;;7.20;;
1300;SDS011;67431;48.806;9.160;2023-02-05T03:07:53;12.10;;;7.20;;
1300;SDS011;67431;48.806;9.160;2023-02-05T03:13:05;10.97;;;7.17;;
1300;SDS011;67431;48.806;9.160;2023-02-05T03:15:33;10.93;;;6.73;;
1300;SDS011;67431;48.806;9.160;2023-02-05T03:17:59;16.30;;;7.20;;
1300;SDS011;67431;48.806;9.160;2023-02-05T03:20:27;9.80;;;6.63;;
1300;SDS011;67431;48.806;9.160;2023-02-05T03:22:57;12.73;;;6.73;;
1300;SDS011;67431;48.806;9.160;2023-02-05T03:25:23;12.43;;;6.90;;
1300;SDS011;67431;48.806;9.160;2023-02-05T03:27:55;9.13;;;7.07;;
1300;SDS011;67431;48.806;9.160;2023-02-05T03:30:29;9.97;;;7.10;;
1300;SDS011;67431;48.806;9.160;2023-02-05T03:33:20;7.30;;;5.57;;
1300;SDS011;67431;48.806;9.160;2023-02-05T03:35:53;13.17;;;6.90;;
1300;SDS011;67431;48.806;9.160;2023-02-05T03:41:41;11.73;;;6.70;;
1300;SDS011;67431;48.806;9.160;2023-02-05T03:47:10;13.80;;;6.50;;
1300;SDS011;67431;48.806;9.160;2023-02-05T03:49:48;8.97;;;7.27;;
1300;SDS011;67431;48.806;9.160;2023-02-05T03:52:40;9.97;;;7.20;;
1300;SDS011;67431;48.806;9.160;2023-02-05T03:55:20;9.53;;;6.37;;
1300;SDS011;67431;48.806;9.160;2023-02-05T03:57:51;11.70;;;6.07;;
1300;SDS011;67431;48.806;9.160;2023-02-05T04:00:26;13.80;;;6.67;;
1300;SDS011;67431;48.806;9.160;2023-02-05T04:02:53;9.60;;;6.23;;
1300;SDS011;67431;48.806;9.160;2023-02-05T04:05:24;13.13;;;6.10;;
1300;SDS011;67431;48.806;9.160;2023-02-05T04:07:54;6.13;;;4.93;;
1300;SDS011;67431;48.806;9.160;2023-02-05T04:10:26;9.57;;;6.30;;
1300;SDS011;67431;48.806;9.160;2023-02-05T04:12:52;12.63;;;6.30;;
1300;SDS011;67431;48.806;9.160;2023-02-05T04:15:20;9.00;;;5.40;;
1300;SDS011;67431;48.806;9.160;2023-02-05T04:17:51;9.17;;;6.43;;
1300;SDS011;67431;48.806;9.160;2023-02-05T04:20:18;9.73;;;6.67;;
1300;SDS011;67431;48.806;9.160;2023-02-05T04:22:47;11.37;;;7.30;;
1300;SDS011;67431;48.806;9.160;2023-02-05T04:25:14;11.63;;;7.30;;
1300;SDS011;67431;48.806;9.160;2023-02-05T04:27:42;9.43;;;7.40;;
1300;SDS011;67431;48.806;9.160;2023-02-05T04:30:11;11.73;;;6.53;;
1300;SDS011;67431;48.806;9.160;2023-02-05T04:32:41;12.00;;;7.73;;
1300;SDS011;67431;48.806;9.160;2023-02-05T04:35:08;15.17;;;7.40;;
1300;SDS011;67431;48.806;9.160;2023-02-05T04:37:35;8.97;;;7.13;;
1300;SDS011;67431;48.806;9.160;2023-02-05T04:40:01;10.03;;;6.73;;
1300;SDS011;67431;48.806;9.160;2023-02-05T04:42:29;13.20;;;6.50;;
1300;SDS011;67431;48.806;9.160;2023-02-05T04:44:55;13.63;;;7.27;;
1300;SDS011;67431;48.806;9.160;2023-02-05T04:47:21;8.73;;;6.63;;
1300;SDS011;67431;48.806;9.160;2023-02-05T04:49:47;10.50;;;6.60;;
1300;SDS011;67431;48.806;9.160;2023-02-05T04:52:13;13.17;;;7.33;;
1300;SDS011;67431;48.806;9.160;2023-02-05T04:54:39;11.93;;;6.73;;
1300;SDS011;67431;48.806;9.160;2023-02-05T04:57:05;8.70;;;5.23;;
1300;SDS011;67431;48.806;9.160;2023-02-05T04:59:31;9.03;;;6.57;;
1300;SDS011;67431;48.806;9.160;2023-02-05T05:02:01;6.50;;;5.83;;
1300;SDS011;67431;48.806;9.160;2023-02-05T05:10:28;7.87;;;5.87;;
1300;SDS011;67431;48.806;9.160;2023-02-05T05:12:54;6.33;;;5.13;;
1300;SDS011;67431;48.806;9.160;2023-02-05T05:15:19;10.83;;;6.37;;
1300;SDS011;67431;48.806;9.160;2023-02-05T05:17:45;11.07;;;6.20;;
1300;SDS011;67431;48.806;9.160;2023-02-05T05:20:11;9.20;;;6.07;;
1300;SDS011;67431;48.806;9.160;2023-02-05T05:22:37;7.67;;;5.97;;
1300;SDS011;67431;48.806;9.160;2023-02-05T05:25:06;11.33;;;7.27;;
1300;SDS011;67431;48.806;9.160;2023-02-05T05:27:32;9.23;;;5.70;;
1300;SDS011;67431;48.806;9.160;2023-02-05T05:29:58;9.27;;;6.10;;
1300;SDS011;67431;48.806;9.160;2023-02-05T05:32:24;8.03;;;5.20;;
1300;SDS011;67431;48.806;9.160;2023-02-05T05:34:50;9.93;;;5.90;;
1300;SDS011;67431;48.806;9.160;2023-02-05T05:40:08;9.17;;;5.30;;
1300;SDS011;67431;48.806;9.160;2023-02-05T05:46:29;8.00;;;5.23;;
1300;SDS011;67431;48.806;9.160;2023-02-05T05:49:08;8.60;;;6.20;;
1300;SDS011;67431;48.806;9.160;2023-02-05T05:51:41;8.20;;;5.80;;
1300;SDS011;67431;48.806;9.160;2023-02-05T05:54:10;11.23;;;5.70;;
1300;SDS011;67431;48.806;9.160;2023-02-05T05:57:03;12.40;;;5.40;;
1300;SDS011;67431;48.806;9.160;2023-02-05T05:59:29;9.57;;;5.67;;
1300;SDS011;67431;48.806;9.160;2023-02-05T06:01:55;9.10;;;6.60;;
1300;SDS011;67431;48.806;9.160;2023-02-05T06:04:21;9.27;;;5.43;;
1300;SDS011;67431;48.806;9.160;2023-02-05T06:06:52;9.50;;;5.93;;
1300;SDS011;67431;48.806;9.160;2023-02-05T06:09:18;7.60;;;5.63;;
1300;SDS011;67431;48.806;9.160;2023-02-05T06:11:46;9.57;;;5.40;;
1300;SDS011;67431;48.806;9.160;2023-02-05T06:14:12;11.67;;;5.87;;
1300;SDS011;67431;48.806;9.160;2023-02-05T06:16:38;14.13;;;7.33;;
1300;SDS011;67431;48.806;9.160;2023-02-05T06:19:12;10.97;;;6.37;;
1300;SDS011;67431;48.806;9.160;2023-02-05T06:21:38;10.00;;;6.17;;
1300;SDS011;67431;48.806;9.160;2023-02-05T06:24:05;9.07;;;6.30;;
1300;SDS011;67431;48.806;9.160;2023-02-05T06:26:34;12.00;;;6.20;;
1300;SDS011;67431;48.806;9.160;2023-02-05T06:29:01;13.30;;;6.40;;
1300;SDS011;67431;48.806;9.160;2023-02-05T06:31:30;10.07;;;5.90;;
1300;SDS011;67431;48.806;9.160;2023-02-05T06:33:57;8.17;;;6.17;;
1300;SDS011;67431;48.806;9.160;2023-02-05T06:36:23;10.57;;;6.07;;
1300;SDS011;67431;48.806;9.160;2023-02-05T06:38:49;8.73;;;5.90;;
1300;SDS011;67431;48.806;9.160;2023-02-05T06:41:15;12.10;;;5.50;;
1300;SDS011;67431;48.806;9.160;2023-02-05T06:43:41;8.20;;;5.90;;
1300;SDS011;67431;48.806;9.160;2023-02-05T06:46:07;6.50;;;4.43;;
1300;SDS011;67431;48.806;9.160;2023-02-05T06:48:33;10.63;;;5.30;;
1300;SDS011;67431;48.806;9.160;2023-02-05T06:50:59;8.00;;;5.83;;
1300;SDS011;67431;48.806;9.160;2023-02-05T06:53:25;9.40;;;5.53;;
1300;SDS011;67431;48.806;9.160;2023-02-05T06:55:51;8.60;;;5.43;;
1300;SDS011;67431;48.806;9.160;2023-02-05T06:58:17;6.63;;;4.93;;
1300;SDS011;67431;48.806;9.160;2023-02-05T07:00:43;14.37;;;6.40;;
1300;SDS011;67431;48.806;9.160;2023-02-05T07:03:09;11.70;;;5.90;;
1300;SDS011;67431;48.806;9.160;2023-02-05T07:05:34;10.40;;;7.10;;
1300;SDS011;67431;48.806;9.160;2023-02-05T07:08:00;11.63;;;7.77;;
1300;SDS011;67431;48.806;9.160;2023-02-05T07:10:28;12.37;;;7.37;;
1300;SDS011;67431;48.806;9.160;2023-02-05T07:12:54;9.80;;;6.60;;
1300;SDS011;67431;48.806;9.160;2023-02-05T07:15:20;11.97;;;6.10;;
1300;SDS011;67431;48.806;9.160;2023-02-05T07:17:46;13.10;;;6.50;;
1300;SDS011;67431;48.806;9.160;2023-02-05T07:20:12;8.10;;;6.10;;
1300;SDS011;67431;48.806;9.160;2023-02-05T07:22:40;9.60;;;6.90;;
1300;SDS011;67431;48.806;9.160;2023-02-05T07:25:06;8.87;;;5.73;;
1300;SDS011;67431;48.806;9.160;2023-02-05T07:27:32;7.30;;;5.80;;
1300;SDS011;67431;48.806;9.160;2023-02-05T07:29:58;10.60;;;5.63;;
1300;SDS011;67431;48.806;9.160;2023-02-05T07:32:24;11.40;;;5.10;;
1300;SDS011;67431;48.806;9.160;2023-02-05T07:34:50;9.40;;;5.50;;
1300;SDS011;67431;48.806;9.160;2023-02-05T07:37:16;11.10;;;5.57;;
1300;SDS011;67431;48.806;9.160;2023-02-05T07:39:42;7.80;;;5.10;;
1300;SDS011;67431;48.806;9.160;2023-02-05T07:42:08;11.27;;;5.37;;
1300;SDS011;67431;48.806;9.160;2023-02-05T07:44:41;8.83;;;5.30;;
1300;SDS011;67431;48.806;9.160;2023-02-05T07:47:07;8.90;;;7.00;;
1300;SDS011;67431;48.806;9.160;2023-02-05T07:49:33;10.63;;;6.27;;
1300;SDS011;67431;48.806;9.160;2023-02-05T07:52:00;7.40;;;5.50;;
1300;SDS011;67431;48.806;9.160;2023-02-05T07:54:26;10.57;;;6.40;;
1300;SDS011;67431;48.806;9.160;2023-02-05T07:56:51;9.30;;;5.67;;
1300;SDS011;67431;48.806;9.160;2023-02-05T07:59:19;14.07;;;7.07;;
1300;SDS011;67431;48.806;9.160;2023-02-05T08:01:45;7.70;;;5.47;;
1300;SDS011;67431;48.806;9.160;2023-02-05T08:04:11;13.30;;;5.63;;
1300;SDS011;67431;48.806;9.160;2023-02-05T08:06:36;17.17;;;6.70;;
1300;SDS011;67431;48.806;9.160;2023-02-05T08:09:02;11.63;;;5.80;;
1300;SDS011;67431;48.806;9.160;2023-02-05T08:11:28;11.60;;;7.30;;
1300;SDS011;67431;48.806;9.160;2023-02-05T08:13:54;10.70;;;8.17;;
1300;SDS011;67431;48.806;9.160;2023-02-05T08:16:20;8.93;;;7.20;;
1300;SDS011;67431;48.806;9.160;2023-02-05T08:18:46;16.70;;;9.70;;
1300;SDS011;67431;48.806;9.160;2023-02-05T08:21:14;13.90;;;8.30;;
1300;SDS011;67431;48.806;9.160;2023-02-05T08:23:40;13.57;;;9.30;;
1300;SDS011;67431;48.806;9.160;2023-02-05T08:26:09;21.30;;;13.10;;
1300;SDS011;67431;48.806;9.160;2023-02-05T08:28:37;13.30;;;9.60;;
1300;SDS011;67431;48.806;9.160;2023-02-05T08:31:14;15.23;;;9.33;;
1300;SDS011;67431;48.806;9.160;2023-02-05T08:33:44;10.50;;;8.10;;
1300;SDS011;67431;48.806;9.160;2023-02-05T08:36:11;16.20;;;7.67;;
1300;SDS011;67431;48.806;9.160;2023-02-05T08:38:38;10.93;;;7.27;;
1300;SDS011;67431;48.806;9.160;2023-02-05T08:41:07;17.00;;;10.57;;
1300;SDS011;67431;48.806;9.160;2023-02-05T08:43:40;16.80;;;10.63;;
1300;SDS011;67431;48.806;9.160;2023-02-05T08:46:07;11.73;;;8.70;;
1300;SDS011;67431;48.806;9.160;2023-02-05T08:48:36;13.83;;;8.63;;
1300;SDS011;67431;48.806;9.160;2023-02-05T08:51:03;10.77;;;9.67;;
1300;SDS011;67431;48.806;9.160;2023-02-05T08:53:30;12.83;;;8.60;;
1300;SDS011;67431;48.806;9.160;2023-02-05T08:55:57;14.63;;;7.90;;
1300;SDS011;67431;48.806;9.160;2023-02-05T08:58:24;10.60;;;8.30;;
1300;SDS011;67431;48.806;9.160;2023-02-05T09:00:50;9.80;;;7.60;;
1300;SDS011;67431;48.806;9.160;2023-02-05T09:03:17;14.70;;;9.40;;
1300;SDS011;67431;48.806;9.160;2023-02-05T09:05:43;13.03;;;8.30;;
1300;SDS011;67431;48.806;9.160;2023-02-05T09:08:09;15.13;;;9.93;;
1300;SDS011;67431;48.806;9.160;2023-02-05T09:10:35;10.10;;;7.87;;
1300;SDS011;67431;48.806;9.160;2023-02-05T09:13:06;12.30;;;8.70;;
1300;SDS011;67431;48.806;9.160;2023-02-05T09:15:32;18.77;;;10.37;;
1300;SDS011;67431;48.806;9.160;2023-02-05T09:18:01;12.83;;;8.57;;
1300;SDS011;67431;48.806;9.160;2023-02-05T09:20:26;20.87;;;10.37;;
1300;SDS011;67431;48.806;9.160;2023-02-05T09:22:52;16.60;;;9.70;;
1300;SDS011;67431;48.806;9.160;2023-02-05T09:25:19;15.87;;;10.20;;
1300;SDS011;67431;48.806;9.160;2023-02-05T09:27:45;14.77;;;10.07;;
1300;SDS011;67431;48.806;9.160;2023-02-05T09:30:11;12.93;;;10.23;;
1300;SDS011;67431;48.806;9.160;2023-02-05T09:32:37;13.03;;;9.90;;
1300;SDS011;67431;48.806;9.160;2023-02-05T09:35:03;14.00;;;9.90;;
1300;SDS011;67431;48.806;9.160;2023-02-05T09:37:33;17.93;;;10.23;;
1300;SDS011;67431;48.806;9.160;2023-02-05T09:39:59;14.30;;;9.30;;
1300;SDS011;67431;48.806;9.160;2023-02-05T09:42:35;14.10;;;9.10;;
1300;SDS011;67431;48.806;9.160;2023-02-05T09:45:35;17.47;;;11.23;;
1300;SDS011;67431;48.806;9.160;2023-02-05T09:48:30;12.93;;;10.23;;
1300;SDS011;67431;48.806;9.160;2023-02-05T09:51:00;15.67;;;11.00;;
1300;SDS011;67431;48.806;9.160;2023-02-05T09:53:28;12.97;;;9.53;;
1300;SDS011;67431;48.806;9.160;2023-02-05T09:56:00;12.07;;;9.80;;
1300;SDS011;67431;48.806;9.160;2023-02-05T09:58:32;16.20;;;9.57;;
1300;SDS011;67431;48.806;9.160;2023-02-05T10:03:48;19.87;;;11.97;;
1300;SDS011;67431;48.806;9.160;2023-02-05T10:12:01;15.87;;;11.60;;
1300;SDS011;67431;48.806;9.160;2023-02-05T10:20:37;17.33;;;13.30;;
1300;SDS011;67431;48.806;9.160;2023-02-05T10:22:58;14.93;;;12.17;;
1300;SDS011;67431;48.806;9.160;2023-02-05T10:25:47;11.50;;;9.63;;
1300;SDS011;67431;48.806;9.160;2023-02-05T10:34:16;11.60;;;7.43;;
1300;SDS011;67431;48.806;9.160;2023-02-05T10:36:43;16.67;;;8.83;;
1300;SDS011;67431;48.806;9.160;2023-02-05T10:39:15;11.80;;;8.03;;
1300;SDS011;67431;48.806;9.160;2023-02-05T10:47:13;13.43;;;8.17;;
1300;SDS011;67431;48.806;9.160;2023-02-05T10:49:55;9.70;;;7.03;;
1300;SDS011;67431;48.806;9.160;2023-02-05T10:52:26;8.60;;;5.97;;
1300;SDS011;67431;48.806;9.160;2023-02-05T10:54:52;9.77;;;6.33;;
1300;SDS011;67431;48.806;9.160;2023-02-05T10:57:19;7.50;;;5.40;;
1300;SDS011;67431;48.806;9.160;2023-02-05T10:59:49;15.47;;;8.73;;
1300;SDS011;67431;48.806;9.160;2023-02-05T11:02:37;16.17;;;10.37;;
1300;SDS011;67431;48.806;9.160;2023-02-05T11:05:05;20.80;;;11.47;;
1300;SDS011;67431;48.806;9.160;2023-02-05T11:07:42;16.50;;;11.50;;
1300;SDS011;67431;48.806;9.160;2023-02-05T11:10:15;12.10;;;10.80;;
1300;SDS011;67431;48.806;9.160;2023-02-05T11:12:47;19.13;;;12.50;;
1300;SDS011;67431;48.806;9.160;2023-02-05T11:15:26;17.63;;;12.30;;
1300;SDS011;67431;48.806;9.160;2023-02-05T11:20:29;15.47;;;11.10;;
1300;SDS011;67431;48.806;9.160;2023-02-05T11:28:42;36.60;;;25.13;;
1300;SDS011;67431;48.806;9.160;2023-02-05T11:31:19;30.83;;;20.23;;
1300;SDS011;67431;48.806;9.160;2023-02-05T11:33:49;32.07;;;22.07;;
1300;SDS011;67431;48.806;9.160;2023-02-05T11:36:18;40.27;;;27.37;;
1300;SDS011;67431;48.806;9.160;2023-02-05T11:38:49;70.10;;;47.73;;
1300;SDS011;67431;48.806;9.160;2023-02-05T11:41:37;22.47;;;15.20;;
1300;SDS011;67431;48.806;9.160;2023-02-05T11:46:42;23.50;;;17.40;;
1300;SDS011;67431;48.806;9.160;2023-02-05T11:49:13;17.13;;;11.87;;
1300;SDS011;67431;48.806;9.160;2023-02-05T11:51:46;19.47;;;13.30;;
1300;SDS011;67431;48.806;9.160;2023-02-05T11:59:41;15.87;;;13.50;;
1300;SDS011;67431;48.806;9.160;2023-02-05T12:07:34;15.77;;;12.97;;
1300;SDS011;67431;48.806;9.160;2023-02-05T12:10:16;19.43;;;14.30;;
1300;SDS011;67431;48.806;9.160;2023-02-05T12:13:08;20.33;;;14.83;;
1300;SDS011;67431;48.806;9.160;2023-02-05T12:18:54;19.23;;;13.00;;
1300;SDS011;67431;48.806;9.160;2023-02-05T12:27:05;15.70;;;13.40;;
1300;SDS011;67431;48.806;9.160;2023-02-05T12:40:54;19.63;;;14.80;;
1300;SDS011;67431;48.806;9.160;2023-02-05T12:43:38;24.27;;;13.93;;
1300;SDS011;67431;48.806;9.160;2023-02-05T12:51:39;14.10;;;11.47;;
1300;SDS011;67431;48.806;9.160;2023-02-05T12:54:21;13.03;;;10.90;;
1300;SDS011;67431;48.806;9.160;2023-02-05T12:57:01;16.00;;;10.70;;
1300;SDS011;67431;48.806;9.160;2023-02-05T12:59:53;15.37;;;11.47;;
1300;SDS011;67431;48.806;9.160;2023-02-05T13:05:31;12.03;;;9.50;;
1300;SDS011;67431;48.806;9.160;2023-02-05T13:10:37;13.00;;;10.00;;
1300;SDS011;67431;48.806;9.160;2023-02-05T13:13:24;14.20;;;9.20;;
1300;SDS011;67431;48.806;9.160;2023-02-05T13:16:04;16.57;;;9.30;;
1300;SDS011;67431;48.806;9.160;2023-02-05T13:18:40;10.87;;;9.20;;
1300;SDS011;67431;48.806;9.160;2023-02-05T13:21:19;14.60;;;10.00;;
1300;SDS011;67431;48.806;9.160;2023-02-05T13:27:27;10.87;;;7.20;;
1300;SDS011;67431;48.806;9.160;2023-02-05T13:30:39;8.93;;;5.90;;
1300;SDS011;67431;48.806;9.160;2023-02-05T13:33:09;6.27;;;5.33;;
1300;SDS011;67431;48.806;9.160;2023-02-05T13:35:40;9.40;;;6.33;;
1300;SDS011;67431;48.806;9.160;2023-02-05T13:58:24;6.13;;;5.50;;
1300;SDS011;67431;48.806;9.160;2023-02-05T14:01:13;7.50;;;5.63;;
1300;SDS011;67431;48.806;9.160;2023-02-05T14:06:59;5.00;;;4.10;;
1300;SDS011;67431;48.806;9.160;2023-02-05T14:10:18;6.10;;;4.53;;
1300;SDS011;67431;48.806;9.160;2023-02-05T14:12:28;7.20;;;3.80;;
1300;SDS011;67431;48.806;9.160;2023-02-05T14:23:03;3.00;;;2.73;;
1300;SDS011;67431;48.806;9.160;2023-02-05T14:30:55;3.33;;;3.03;;
1300;SDS011;67431;48.806;9.160;2023-02-05T14:38:54;3.87;;;3.50;;
1300;SDS011;67431;48.806;9.160;2023-02-05T14:41:26;3.93;;;3.53;;
1300;SDS011;67431;48.806;9.160;2023-02-05T14:44:12;4.60;;;4.20;;
1300;SDS011;67431;48.806;9.160;2023-02-05T14:50:04;4.60;;;4.20;;
1300;SDS011;67431;48.806;9.160;2023-02-05T14:52:38;3.80;;;3.50;;
1300;SDS011;67431;48.806;9.160;2023-02-05T14:57:40;5.93;;;4.50;;
1300;SDS011;67431;48.806;9.160;2023-02-05T15:02:58;5.00;;;3.57;;
1300;SDS011;67431;48.806;9.160;2023-02-05T15:05:30;3.93;;;3.60;;
1300;SDS011;67431;48.806;9.160;2023-02-05T15:08:07;3.60;;;3.30;;
1300;SDS011;67431;48.806;9.160;2023-02-05T15:10:45;4.20;;;3.80;;
1300;SDS011;67431;48.806;9.160;2023-02-05T15:13:28;6.00;;;4.87;;
1300;SDS011;67431;48.806;9.160;2023-02-05T15:18:57;6.30;;;4.53;;
1300;SDS011;67431;48.806;9.160;2023-02-05T15:23:59;5.00;;;4.60;;
1300;SDS011;67431;48.806;9.160;2023-02-05T15:29:12;5.17;;;4.70;;
1300;SDS011;67431;48.806;9.160;2023-02-05T15:31:51;5.43;;;4.93;;
1300;SDS011;67431;48.806;9.160;2023-02-05T15:34:31;6.30;;;5.23;;
1300;SDS011;67431;48.806;9.160;2023-02-05T15:37:05;8.30;;;5.00;;
1300;SDS011;67431;48.806;9.160;2023-02-05T15:39:59;5.87;;;4.40;;
1300;SDS011;67431;48.806;9.160;2023-02-05T15:42:34;5.67;;;4.70;;
1300;SDS011;67431;48.806;9.160;2023-02-05T15:50:37;6.33;;;5.60;;
1300;SDS011;67431;48.806;9.160;2023-02-05T15:58:58;4.60;;;4.20;;
1300;SDS011;67431;48.806;9.160;2023-02-05T16:01:41;5.67;;;4.50;;
1300;SDS011;67431;48.806;9.160;2023-02-05T16:04:31;5.33;;;4.90;;
1300;SDS011;67431;48.806;9.160;2023-02-05T16:06:58;6.50;;;4.90;;
1300;SDS011;67431;48.806;9.160;2023-02-05T16:09:27;5.90;;;5.30;;
1300;SDS011;67431;48.806;9.160;2023-02-05T16:11:54;5.47;;;4.67;;
1300;SDS011;67431;48.806;9.160;2023-02-05T16:14:21;4.90;;;4.50;;
1300;SDS011;67431;48.806;9.160;2023-02-05T16:19:33;4.50;;;4.10;;
1300;SDS011;67431;48.806;9.160;2023-02-05T16:25:01;5.77;;;4.77;;
1300;SDS011;67431;48.806;9.160;2023-02-05T16:27:43;5.23;;;4.83;;
1300;SDS011;67431;48.806;9.160;2023-02-05T16:30:17;4.50;;;4.13;;
1300;SDS011;67431;48.806;9.160;2023-02-05T16:32:50;5.30;;;4.67;;
1300;SDS011;67431;48.806;9.160;2023-02-05T16:37:59;5.70;;;5.20;;
1300;SDS011;67431;48.806;9.160;2023-02-05T16:43:16;4.83;;;4.43;;
1300;SDS011;67431;48.806;9.160;2023-02-05T16:48:30;6.90;;;5.87;;
1300;SDS011;67431;48.806;9.160;2023-02-05T16:51:00;9.63;;;5.97;;
1300;SDS011;67431;48.806;9.160;2023-02-05T16:53:31;6.40;;;5.13;;
1300;SDS011;67431;48.806;9.160;2023-02-05T16:56:01;7.97;;;6.33;;
1300;SDS011;67431;48.806;9.160;2023-02-05T16:58:44;6.27;;;5.77;;
1300;SDS011;67431;48.806;9.160;2023-02-05T17:01:12;6.70;;;6.00;;
1300;SDS011;67431;48.806;9.160;2023-02-05T17:03:47;7.07;;;6.37;;
1300;SDS011;67431;48.806;9.160;2023-02-05T17:06:14;7.40;;;6.70;;
1300;SDS011;67431;48.806;9.160;2023-02-05T17:08:42;7.40;;;6.60;;
1300;SDS011;67431;48.806;9.160;2023-02-05T17:11:35;8.33;;;7.43;;
1300;SDS011;67431;48.806;9.160;2023-02-05T17:14:11;9.67;;;6.90;;
1300;SDS011;67431;48.806;9.160;2023-02-05T17:16:59;9.97;;;8.60;;
1300;SDS011;67431;48.806;9.160;2023-02-05T17:19:28;11.07;;;8.97;;
1300;SDS011;67431;48.806;9.160;2023-02-05T17:22:19;9.37;;;8.47;;
1300;SDS011;67431;48.806;9.160;2023-02-05T17:24:46;10.20;;;9.30;;
1300;SDS011;67431;48.806;9.160;2023-02-05T17:29:55;10.00;;;9.10;;
1300;SDS011;67431;48.806;9.160;2023-02-05T17:32:33;10.10;;;9.10;;
1300;SDS011;67431;48.806;9.160;2023-02-05T17:35:11;11.50;;;8.77;;
1300;SDS011;67431;48.806;9.160;2023-02-05T17:37:50;10.77;;;8.73;;
1300;SDS011;67431;48.806;9.160;2023-02-05T17:40:27;9.57;;;8.77;;
1300;SDS011;67431;48.806;9.160;2023-02-05T17:42:53;9.10;;;8.20;;
1300;SDS011;67431;48.806;9.160;2023-02-05T17:45:25;9.67;;;8.77;;
1300;SDS011;67431;48.806;9.160;2023-02-05T17:47:56;10.77;;;9.40;;
1300;SDS011;67431;48.806;9.160;2023-02-05T17:50:31;10.40;;;9.33;;
1300;SDS011;67431;48.806;9.160;2023-02-05T17:53:01;11.40;;;10.17;;
1300;SDS011;67431;48.806;9.160;2023-02-05T17:55:33;10.90;;;10.00;;
1300;SDS011;67431;48.806;9.160;2023-02-05T17:58:03;13.03;;;11.27;;
1300;SDS011;67431;48.806;9.160;2023-02-05T18:00:35;11.60;;;10.40;;
1300;SDS011;67431;48.806;9.160;2023-02-05T18:03:03;13.47;;;11.80;;
1300;SDS011;67431;48.806;9.160;2023-02-05T18:05:32;12.43;;;11.13;;
1300;SDS011;67431;48.806;9.160;2023-02-05T18:08:04;11.37;;;10.27;;
1300;SDS011;67431;48.806;9.160;2023-02-05T18:10:30;12.63;;;11.03;;
1300;SDS011;67431;48.806;9.160;2023-02-05T18:12:59;11.17;;;10.10;;
1300;SDS011;67431;48.806;9.160;2023-02-05T18:15:25;13.83;;;11.87;;
1300;SDS011;67431;48.806;9.160;2023-02-05T18:17:52;12.00;;;10.70;;
1300;SDS011;67431;48.806;9.160;2023-02-05T18:20:18;11.93;;;10.53;;
1300;SDS011;67431;48.806;9.160;2023-02-05T18:22:48;15.30;;;11.20;;
1300;SDS011;67431;48.806;9.160;2023-02-05T18:25:17;13.83;;;12.43;;
1300;SDS011;67431;48.806;9.160;2023-02-05T18:27:42;11.93;;;10.53;;
1300;SDS011;67431;48.806;9.160;2023-02-05T18:30:09;10.37;;;9.47;;
1300;SDS011;67431;48.806;9.160;2023-02-05T18:32:35;12.03;;;10.70;;
1300;SDS011;67431;48.806;9.160;2023-02-05T18:35:01;10.87;;;9.70;;
1300;SDS011;67431;48.806;9.160;2023-02-05T18:37:28;10.10;;;9.10;;
1300;SDS011;67431;48.806;9.160;2023-02-05T18:39:56;10.17;;;9.17;;